»·PEaware :: DAL1040 KSAN-KSFO

DAL1040 :: KSAN-KSFO

FLIGHT INFORMATION

Flight Status: Arrived
Operator:
Delta Air Lines
More flights by this operator :: More flights under this callsign
Pilot: Ryan B. (8502)
Aircraft: BOEING 737-800
(B738)
More flights by this aircraft type
Origin: KSAN San Diego Intl-Lindbergh
United States
Destination: KSFO San Francisco Intl
United States
More flights between these airports :: More routes between these airports
Route: PADRZ1 IKAYE RIZIN SPLNT STOKD SERFR SERFR2
File this flight plan on PilotEdge
Remarks:
Altitude:
(Current/Filed)
36,000ft
Speed:
(Current/Filed)
445kts
Departed: 30-Nov-17 07:35 PM
Arrived: 30-Nov-17 08:42 PM
Distance/Time
Traveled:
388nm/1:06
Distance/Time
To Go:
Arrived

Flight Plot

Page will automatically refresh every two minutes.

Flight plan parsing failed; only flown route is shown


Map Options




Map Legend


Flown Route
Filed Route
Departure Airport
Arrival Airport
Navaid (VOR, NDB)
Fix

Horizontal Profiles

Position Reports

Time Latitude Longitude Heading Altitude Ground
Speed
30-Nov-17 19:26 32.733354 -117.203510 269 17ft 0kts
30-Nov-17 19:27 32.733354 -117.203510 269 17ft 0kts
30-Nov-17 19:28 32.733354 -117.203510 269 17ft 0kts
30-Nov-17 19:29 32.733354 -117.203510 269 17ft 0kts
30-Nov-17 19:30 32.733354 -117.203510 269 17ft 0kts
30-Nov-17 19:31 32.733354 -117.203510 269 17ft 0kts
30-Nov-17 19:32 32.733354 -117.203510 269 17ft 0kts
30-Nov-17 19:33 32.733480 -117.202776 217 17ft 3kts
30-Nov-17 19:34 32.733729 -117.202696 178 17ft 0kts
30-Nov-17 19:35 32.733852 -117.202853 17 17ft 7kts
30-Nov-17 19:36 32.734697 -117.198618 105 17ft 22kts
30-Nov-17 19:37 32.732640 -117.190096 107 19ft 32kts
30-Nov-17 19:38 32.729877 -117.178795 107 20ft 32kts
30-Nov-17 19:39 32.730242 -117.176022 286 24ft 12kts
30-Nov-17 19:40 32.741450 -117.216386 290 1675ft 181kts
30-Nov-17 19:41 32.775277 -117.278101 305 4174ft 264kts
30-Nov-17 19:42 32.819228 -117.349003 306 8520ft 277kts
30-Nov-17 19:43 32.867618 -117.423972 305 12150ft 303kts
30-Nov-17 19:44 32.923605 -117.510856 304 15126ft 347kts
30-Nov-17 19:45 32.983153 -117.603783 303 18530ft 365kts
30-Nov-17 19:46 33.045845 -117.701716 302 21584ft 384kts
30-Nov-17 19:47 33.123281 -117.790218 315 24269ft 408kts
30-Nov-17 19:48 33.208652 -117.878805 309 26808ft 416kts
30-Nov-17 19:49 33.288663 -117.976529 308 29792ft 406kts
30-Nov-17 19:50 33.366491 -118.071118 307 32300ft 397kts
30-Nov-17 19:51 33.443034 -118.164074 306 34383ft 389kts
30-Nov-17 19:52 33.518483 -118.255648 306 36025ft 387kts
30-Nov-17 19:53 33.597003 -118.350864 307 36101ft 418kts
30-Nov-17 19:54 33.681761 -118.453489 307 36101ft 447kts
30-Nov-17 19:55 33.769377 -118.559412 308 36084ft 449kts
30-Nov-17 19:56 33.855518 -118.663537 307 36092ft 450kts
30-Nov-17 19:57 33.943130 -118.769324 308 36091ft 450kts
30-Nov-17 19:58 34.029018 -118.872934 311 36079ft 415kts
30-Nov-17 19:59 34.110145 -118.970711 316 36089ft 430kts
30-Nov-17 20:00 34.183619 -119.088894 301 36087ft 450kts
30-Nov-17 20:01 34.238124 -119.195735 302 36083ft 449kts
30-Nov-17 20:02 34.314723 -119.345092 302 36080ft 449kts
30-Nov-17 20:03 34.380586 -119.473222 303 36079ft 449kts
30-Nov-17 20:04 34.457442 -119.590163 315 36071ft 449kts
30-Nov-17 20:05 34.529793 -119.680019 314 36072ft 448kts
30-Nov-17 20:06 34.616571 -119.788116 314 36073ft 448kts
30-Nov-17 20:07 34.703278 -119.895986 314 36086ft 448kts
30-Nov-17 20:08 34.804670 -120.022011 314 36098ft 448kts
30-Nov-17 20:09 34.877110 -120.111926 315 36097ft 448kts
30-Nov-17 20:10 34.963700 -120.219296 315 36093ft 439kts
30-Nov-17 20:11 35.048333 -120.324117 314 36089ft 434kts
30-Nov-17 20:12 35.133554 -120.424481 317 36086ft 434kts
30-Nov-17 20:13 35.222138 -120.524166 316 36080ft 434kts
30-Nov-17 20:14 35.308689 -120.621638 317 36093ft 421kts
30-Nov-17 20:15 35.394445 -120.718152 317 36102ft 422kts
30-Nov-17 20:16 35.480717 -120.815124 317 36131ft 422kts
30-Nov-17 20:17 35.573704 -120.902450 322 36144ft 422kts
30-Nov-17 20:18 35.666508 -120.989281 322 36147ft 421kts
30-Nov-17 20:19 35.759038 -121.075822 321 36143ft 416kts
30-Nov-17 20:20 35.850481 -121.161277 321 36142ft 413kts
30-Nov-17 20:21 35.936625 -121.241723 321 35898ft 360kts
30-Nov-17 20:22 36.013293 -121.313314 321 34140ft 342kts
30-Nov-17 20:23 36.091486 -121.383232 326 32404ft 353kts
30-Nov-17 20:24 36.168061 -121.442734 326 30763ft 356kts
30-Nov-17 20:25 36.251803 -121.508381 326 28975ft 361kts
30-Nov-17 20:26 36.336985 -121.575136 327 27157ft 366kts
30-Nov-17 20:27 36.423401 -121.642828 327 25311ft 369kts
30-Nov-17 20:28 36.508491 -121.709537 327 23490ft 359kts
30-Nov-17 20:29 36.591363 -121.775230 327 21705ft 351kts
30-Nov-17 20:30 36.672753 -121.839733 327 20039ft 345kts
30-Nov-17 20:31 36.754445 -121.898150 345 17516ft 336kts
30-Nov-17 20:32 36.843849 -121.922790 347 15058ft 325kts
30-Nov-17 20:33 36.915680 -121.942729 347 13637ft 322kts
30-Nov-17 20:34 37.000311 -121.972600 342 11151ft 317kts
30-Nov-17 20:35 37.081934 -122.004549 342 9371ft 292kts
30-Nov-17 20:36 37.152973 -122.032266 342 8321ft 263kts
30-Nov-17 20:37 37.221238 -122.058844 342 7330ft 260kts
30-Nov-17 20:38 37.287701 -122.084654 342 6362ft 257kts
30-Nov-17 20:39 37.353424 -122.110250 342 5391ft 254kts
30-Nov-17 20:40 37.417475 -122.135445 342 4434ft 251kts
30-Nov-17 20:41 37.480459 -122.158316 348 3990ft 231kts
30-Nov-17 20:42 37.533477 -122.186741 316 2768ft 206kts
30-Nov-17 20:43 37.558920 -122.233477 299 2160ft 150kts
30-Nov-17 20:44 37.577719 -122.277485 299 1441ft 134kts
30-Nov-17 20:45 37.594627 -122.318104 298 742ft 131kts
30-Nov-17 20:46 37.611412 -122.357658 298 96ft 127kts
30-Nov-17 20:47 37.619020 -122.378719 269 28ft 15kts

Navigation Log

Ident Type
Flight plan parsing failed, navigation log unavailable